sensor_id;sensor_type;location;lat;lon;timestamp;P1;durP1;ratioP1;P2;durP2;ratioP2
64500;SDS011;50874;24.150;-110.320;2023-05-01T00:01:51;25.20;;;4.72;;
64500;SDS011;50874;24.150;-110.320;2023-05-01T00:04:17;15.75;;;4.28;;
64500;SDS011;50874;24.150;-110.320;2023-05-01T00:06:45;21.60;;;3.80;;
64500;SDS011;50874;24.150;-110.320;2023-05-01T00:09:12;18.58;;;3.83;;
64500;SDS011;50874;24.150;-110.320;2023-05-01T00:11:38;16.90;;;3.50;;
64500;SDS011;50874;24.150;-110.320;2023-05-01T00:14:05;22.08;;;4.00;;
64500;SDS011;50874;24.150;-110.320;2023-05-01T00:16:31;17.88;;;4.70;;
64500;SDS011;50874;24.150;-110.320;2023-05-01T00:18:59;13.65;;;4.47;;
64500;SDS011;50874;24.150;-110.320;2023-05-01T00:21:26;15.52;;;4.22;;
64500;SDS011;50874;24.150;-110.320;2023-05-01T00:23:53;20.25;;;4.45;;
64500;SDS011;50874;24.150;-110.320;2023-05-01T00:26:20;19.63;;;3.97;;
64500;SDS011;50874;24.150;-110.320;2023-05-01T00:28:46;15.63;;;3.92;;
64500;SDS011;50874;24.150;-110.320;2023-05-01T00:31:12;18.13;;;3.92;;
64500;SDS011;50874;24.150;-110.320;2023-05-01T00:33:39;22.95;;;4.65;;
64500;SDS011;50874;24.150;-110.320;2023-05-01T00:36:06;20.13;;;3.92;;
64500;SDS011;50874;24.150;-110.320;2023-05-01T00:38:33;16.52;;;3.83;;
64500;SDS011;50874;24.150;-110.320;2023-05-01T00:40:59;22.45;;;4.20;;
64500;SDS011;50874;24.150;-110.320;2023-05-01T00:43:26;29.83;;;5.10;;
64500;SDS011;50874;24.150;-110.320;2023-05-01T00:45:52;14.73;;;4.38;;
64500;SDS011;50874;24.150;-110.320;2023-05-01T00:48:19;22.30;;;4.68;;
64500;SDS011;50874;24.150;-110.320;2023-05-01T00:50:45;24.85;;;4.63;;
64500;SDS011;50874;24.150;-110.320;2023-05-01T00:53:13;13.73;;;4.28;;
64500;SDS011;50874;24.150;-110.320;2023-05-01T00:55:40;20.23;;;4.47;;
64500;SDS011;50874;24.150;-110.320;2023-05-01T00:58:07;23.45;;;4.93;;
64500;SDS011;50874;24.150;-110.320;2023-05-01T01:00:35;21.25;;;4.40;;
64500;SDS011;50874;24.150;-110.320;2023-05-01T01:03:02;14.00;;;3.72;;
64500;SDS011;50874;24.150;-110.320;2023-05-01T01:05:29;24.60;;;4.75;;
64500;SDS011;50874;24.150;-110.320;2023-05-01T01:08:11;15.68;;;4.28;;
64500;SDS011;50874;24.150;-110.320;2023-05-01T01:10:59;20.30;;;4.57;;
64500;SDS011;50874;24.150;-110.320;2023-05-01T01:16:56;22.17;;;4.90;;
64500;SDS011;50874;24.150;-110.320;2023-05-01T01:23:03;20.30;;;5.13;;
64500;SDS011;50874;24.150;-110.320;2023-05-01T01:28:44;20.35;;;3.97;;
64500;SDS011;50874;24.150;-110.320;2023-05-01T01:31:16;14.13;;;4.43;;
64500;SDS011;50874;24.150;-110.320;2023-05-01T01:39:36;25.35;;;4.82;;
64500;SDS011;50874;24.150;-110.320;2023-05-01T01:42:24;15.23;;;4.15;;
64500;SDS011;50874;24.150;-110.320;2023-05-01T01:44:55;17.35;;;4.45;;
64500;SDS011;50874;24.150;-110.320;2023-05-01T01:47:28;18.13;;;4.88;;
64500;SDS011;50874;24.150;-110.320;2023-05-01T01:49:58;15.68;;;4.78;;
64500;SDS011;50874;24.150;-110.320;2023-05-01T01:52:29;22.73;;;4.95;;
64500;SDS011;50874;24.150;-110.320;2023-05-01T01:54:58;15.98;;;3.65;;
64500;SDS011;50874;24.150;-110.320;2023-05-01T01:57:30;16.10;;;3.92;;
64500;SDS011;50874;24.150;-110.320;2023-05-01T01:59:58;16.75;;;4.38;;
64500;SDS011;50874;24.150;-110.320;2023-05-01T02:02:24;23.85;;;5.00;;
64500;SDS011;50874;24.150;-110.320;2023-05-01T02:04:53;25.10;;;5.10;;
64500;SDS011;50874;24.150;-110.320;2023-05-01T02:07:23;17.98;;;4.75;;
64500;SDS011;50874;24.150;-110.320;2023-05-01T02:09:51;24.40;;;4.60;;
64500;SDS011;50874;24.150;-110.320;2023-05-01T02:12:19;20.10;;;3.80;;
64500;SDS011;50874;24.150;-110.320;2023-05-01T02:14:47;18.30;;;4.03;;
64500;SDS011;50874;24.150;-110.320;2023-05-01T02:17:16;21.85;;;4.25;;
64500;SDS011;50874;24.150;-110.320;2023-05-01T02:19:45;16.30;;;4.43;;
64500;SDS011;50874;24.150;-110.320;2023-05-01T02:22:12;16.08;;;4.18;;
64500;SDS011;50874;24.150;-110.320;2023-05-01T02:24:41;24.80;;;4.78;;
64500;SDS011;50874;24.150;-110.320;2023-05-01T02:27:14;21.30;;;4.47;;
64500;SDS011;50874;24.150;-110.320;2023-05-01T02:29:47;24.33;;;4.32;;
64500;SDS011;50874;24.150;-110.320;2023-05-01T02:32:16;25.15;;;4.75;;
64500;SDS011;50874;24.150;-110.320;2023-05-01T02:34:44;22.40;;;5.07;;
64500;SDS011;50874;24.150;-110.320;2023-05-01T02:37:10;18.92;;;4.05;;
64500;SDS011;50874;24.150;-110.320;2023-05-01T02:39:37;24.88;;;4.88;;
64500;SDS011;50874;24.150;-110.320;2023-05-01T02:42:05;16.50;;;3.38;;
64500;SDS011;50874;24.150;-110.320;2023-05-01T02:44:59;25.23;;;5.03;;
64500;SDS011;50874;24.150;-110.320;2023-05-01T02:47:26;18.38;;;3.92;;
64500;SDS011;50874;24.150;-110.320;2023-05-01T02:49:54;20.08;;;4.97;;
64500;SDS011;50874;24.150;-110.320;2023-05-01T02:52:21;28.33;;;5.22;;
64500;SDS011;50874;24.150;-110.320;2023-05-01T02:54:48;35.28;;;5.00;;
64500;SDS011;50874;24.150;-110.320;2023-05-01T02:57:15;26.15;;;4.80;;
64500;SDS011;50874;24.150;-110.320;2023-05-01T02:59:42;22.58;;;4.70;;
64500;SDS011;50874;24.150;-110.320;2023-05-01T03:02:09;21.33;;;5.22;;
64500;SDS011;50874;24.150;-110.320;2023-05-01T03:04:35;17.88;;;4.30;;
64500;SDS011;50874;24.150;-110.320;2023-05-01T03:07:02;23.60;;;5.18;;
64500;SDS011;50874;24.150;-110.320;2023-05-01T03:09:29;29.73;;;6.10;;
64500;SDS011;50874;24.150;-110.320;2023-05-01T03:11:56;21.48;;;5.60;;
64500;SDS011;50874;24.150;-110.320;2023-05-01T03:14:23;25.52;;;4.95;;
64500;SDS011;50874;24.150;-110.320;2023-05-01T03:16:49;24.20;;;4.45;;
64500;SDS011;50874;24.150;-110.320;2023-05-01T03:19:16;22.48;;;4.97;;
64500;SDS011;50874;24.150;-110.320;2023-05-01T03:21:42;18.00;;;4.57;;
64500;SDS011;50874;24.150;-110.320;2023-05-01T03:24:08;23.33;;;5.25;;
64500;SDS011;50874;24.150;-110.320;2023-05-01T03:26:35;20.52;;;5.15;;
64500;SDS011;50874;24.150;-110.320;2023-05-01T03:29:02;35.22;;;5.93;;
64500;SDS011;50874;24.150;-110.320;2023-05-01T03:31:28;28.00;;;5.78;;
64500;SDS011;50874;24.150;-110.320;2023-05-01T03:33:55;27.70;;;5.40;;
64500;SDS011;50874;24.150;-110.320;2023-05-01T03:36:22;22.75;;;4.97;;
64500;SDS011;50874;24.150;-110.320;2023-05-01T03:38:49;27.30;;;5.25;;
64500;SDS011;50874;24.150;-110.320;2023-05-01T03:41:15;26.98;;;5.22;;
64500;SDS011;50874;24.150;-110.320;2023-05-01T03:43:42;25.90;;;5.25;;
64500;SDS011;50874;24.150;-110.320;2023-05-01T03:46:08;23.70;;;6.82;;
64500;SDS011;50874;24.150;-110.320;2023-05-01T03:48:35;33.33;;;6.25;;
64500;SDS011;50874;24.150;-110.320;2023-05-01T03:51:01;35.88;;;5.40;;
64500;SDS011;50874;24.150;-110.320;2023-05-01T03:53:28;22.13;;;5.72;;
64500;SDS011;50874;24.150;-110.320;2023-05-01T03:55:58;29.35;;;5.95;;
64500;SDS011;50874;24.150;-110.320;2023-05-01T03:58:24;21.55;;;4.53;;
64500;SDS011;50874;24.150;-110.320;2023-05-01T04:00:51;22.77;;;5.20;;
64500;SDS011;50874;24.150;-110.320;2023-05-01T04:03:21;25.83;;;4.75;;
64500;SDS011;50874;24.150;-110.320;2023-05-01T04:05:47;21.23;;;4.78;;
64500;SDS011;50874;24.150;-110.320;2023-05-01T04:08:14;25.08;;;6.22;;
64500;SDS011;50874;24.150;-110.320;2023-05-01T04:10:40;26.15;;;5.45;;
64500;SDS011;50874;24.150;-110.320;2023-05-01T04:13:06;33.72;;;5.30;;
64500;SDS011;50874;24.150;-110.320;2023-05-01T04:15:33;30.17;;;5.78;;
64500;SDS011;50874;24.150;-110.320;2023-05-01T04:17:59;25.15;;;5.65;;
64500;SDS011;50874;24.150;-110.320;2023-05-01T04:20:26;27.85;;;5.75;;
64500;SDS011;50874;24.150;-110.320;2023-05-01T04:22:52;30.67;;;5.80;;
64500;SDS011;50874;24.150;-110.320;2023-05-01T04:25:19;35.58;;;6.70;;
64500;SDS011;50874;24.150;-110.320;2023-05-01T04:27:45;25.67;;;6.72;;
64500;SDS011;50874;24.150;-110.320;2023-05-01T04:30:12;24.95;;;5.35;;
64500;SDS011;50874;24.150;-110.320;2023-05-01T04:32:38;27.75;;;5.57;;
64500;SDS011;50874;24.150;-110.320;2023-05-01T04:35:05;25.77;;;6.88;;
64500;SDS011;50874;24.150;-110.320;2023-05-01T04:37:31;27.30;;;5.28;;
64500;SDS011;50874;24.150;-110.320;2023-05-01T04:39:59;23.20;;;5.35;;
64500;SDS011;50874;24.150;-110.320;2023-05-01T04:42:30;24.15;;;6.55;;
64500;SDS011;50874;24.150;-110.320;2023-05-01T04:44:57;18.23;;;5.03;;
64500;SDS011;50874;24.150;-110.320;2023-05-01T04:47:26;25.75;;;5.55;;
64500;SDS011;50874;24.150;-110.320;2023-05-01T04:49:53;30.20;;;7.43;;
64500;SDS011;50874;24.150;-110.320;2023-05-01T04:52:20;29.45;;;6.47;;
64500;SDS011;50874;24.150;-110.320;2023-05-01T04:54:46;25.83;;;6.35;;
64500;SDS011;50874;24.150;-110.320;2023-05-01T04:57:13;32.90;;;6.32;;
64500;SDS011;50874;24.150;-110.320;2023-05-01T04:59:39;28.38;;;6.22;;
64500;SDS011;50874;24.150;-110.320;2023-05-01T05:02:06;33.53;;;6.32;;
64500;SDS011;50874;24.150;-110.320;2023-05-01T05:04:33;34.17;;;6.50;;
64500;SDS011;50874;24.150;-110.320;2023-05-01T05:06:59;24.83;;;6.47;;
64500;SDS011;50874;24.150;-110.320;2023-05-01T05:09:26;27.92;;;6.03;;
64500;SDS011;50874;24.150;-110.320;2023-05-01T05:11:52;23.65;;;5.20;;
64500;SDS011;50874;24.150;-110.320;2023-05-01T05:14:18;28.20;;;6.40;;
64500;SDS011;50874;24.150;-110.320;2023-05-01T05:16:45;38.08;;;7.28;;
64500;SDS011;50874;24.150;-110.320;2023-05-01T05:19:12;32.33;;;5.35;;
64500;SDS011;50874;24.150;-110.320;2023-05-01T05:21:38;32.10;;;6.65;;
64500;SDS011;50874;24.150;-110.320;2023-05-01T05:24:05;31.63;;;6.40;;
64500;SDS011;50874;24.150;-110.320;2023-05-01T05:26:31;29.13;;;7.82;;
64500;SDS011;50874;24.150;-110.320;2023-05-01T05:28:58;28.38;;;6.55;;
64500;SDS011;50874;24.150;-110.320;2023-05-01T05:31:24;22.02;;;6.55;;
64500;SDS011;50874;24.150;-110.320;2023-05-01T05:33:51;23.98;;;6.20;;
64500;SDS011;50874;24.150;-110.320;2023-05-01T05:36:17;24.52;;;6.05;;
64500;SDS011;50874;24.150;-110.320;2023-05-01T05:38:44;30.27;;;6.80;;
64500;SDS011;50874;24.150;-110.320;2023-05-01T05:41:10;28.42;;;6.70;;
64500;SDS011;50874;24.150;-110.320;2023-05-01T05:43:40;32.60;;;6.72;;
64500;SDS011;50874;24.150;-110.320;2023-05-01T05:46:06;25.25;;;6.03;;
64500;SDS011;50874;24.150;-110.320;2023-05-01T05:48:33;21.75;;;7.43;;
64500;SDS011;50874;24.150;-110.320;2023-05-01T05:50:59;22.52;;;6.60;;
64500;SDS011;50874;24.150;-110.320;2023-05-01T05:53:26;35.85;;;7.32;;
64500;SDS011;50874;24.150;-110.320;2023-05-01T05:55:52;29.38;;;6.07;;
64500;SDS011;50874;24.150;-110.320;2023-05-01T05:58:19;19.80;;;6.13;;
64500;SDS011;50874;24.150;-110.320;2023-05-01T06:00:46;31.02;;;6.15;;
64500;SDS011;50874;24.150;-110.320;2023-05-01T06:03:17;27.60;;;6.47;;
64500;SDS011;50874;24.150;-110.320;2023-05-01T06:05:43;30.08;;;6.93;;
64500;SDS011;50874;24.150;-110.320;2023-05-01T06:08:10;27.98;;;6.65;;
64500;SDS011;50874;24.150;-110.320;2023-05-01T06:10:38;27.40;;;6.72;;
64500;SDS011;50874;24.150;-110.320;2023-05-01T06:13:07;23.73;;;6.30;;
64500;SDS011;50874;24.150;-110.320;2023-05-01T06:15:37;32.20;;;5.90;;
64500;SDS011;50874;24.150;-110.320;2023-05-01T06:18:04;25.60;;;6.40;;
64500;SDS011;50874;24.150;-110.320;2023-05-01T06:20:30;26.40;;;5.75;;
64500;SDS011;50874;24.150;-110.320;2023-05-01T06:22:57;26.80;;;6.00;;
64500;SDS011;50874;24.150;-110.320;2023-05-01T06:25:23;22.55;;;6.35;;
64500;SDS011;50874;24.150;-110.320;2023-05-01T06:27:50;26.88;;;6.82;;
64500;SDS011;50874;24.150;-110.320;2023-05-01T06:30:16;24.05;;;6.53;;
64500;SDS011;50874;24.150;-110.320;2023-05-01T06:32:46;25.05;;;6.35;;
64500;SDS011;50874;24.150;-110.320;2023-05-01T06:35:13;22.02;;;5.15;;
64500;SDS011;50874;24.150;-110.320;2023-05-01T06:37:39;20.40;;;5.07;;
64500;SDS011;50874;24.150;-110.320;2023-05-01T06:40:06;26.88;;;5.68;;
64500;SDS011;50874;24.150;-110.320;2023-05-01T06:42:34;19.98;;;5.38;;
64500;SDS011;50874;24.150;-110.320;2023-05-01T06:45:01;30.30;;;6.28;;
64500;SDS011;50874;24.150;-110.320;2023-05-01T06:47:28;23.42;;;6.88;;
64500;SDS011;50874;24.150;-110.320;2023-05-01T06:49:54;26.77;;;7.32;;
64500;SDS011;50874;24.150;-110.320;2023-05-01T06:52:21;21.50;;;5.80;;
64500;SDS011;50874;24.150;-110.320;2023-05-01T06:54:47;32.67;;;6.88;;
64500;SDS011;50874;24.150;-110.320;2023-05-01T06:57:14;28.77;;;6.32;;
64500;SDS011;50874;24.150;-110.320;2023-05-01T06:59:40;24.27;;;6.40;;
64500;SDS011;50874;24.150;-110.320;2023-05-01T07:02:09;31.00;;;7.35;;
64500;SDS011;50874;24.150;-110.320;2023-05-01T07:04:36;24.30;;;7.20;;
64500;SDS011;50874;24.150;-110.320;2023-05-01T07:07:03;32.42;;;7.68;;
64500;SDS011;50874;24.150;-110.320;2023-05-01T07:09:29;22.88;;;7.38;;
64500;SDS011;50874;24.150;-110.320;2023-05-01T07:11:56;45.25;;;7.88;;
64500;SDS011;50874;24.150;-110.320;2023-05-01T07:14:23;35.20;;;6.93;;
64500;SDS011;50874;24.150;-110.320;2023-05-01T07:16:49;22.98;;;6.97;;
64500;SDS011;50874;24.150;-110.320;2023-05-01T07:19:16;39.22;;;8.75;;
64500;SDS011;50874;24.150;-110.320;2023-05-01T07:21:43;29.25;;;7.38;;
64500;SDS011;50874;24.150;-110.320;2023-05-01T07:24:09;27.50;;;7.10;;
64500;SDS011;50874;24.150;-110.320;2023-05-01T07:26:36;31.50;;;7.05;;
64500;SDS011;50874;24.150;-110.320;2023-05-01T07:29:03;32.15;;;8.27;;
64500;SDS011;50874;24.150;-110.320;2023-05-01T07:31:30;25.55;;;7.15;;
64500;SDS011;50874;24.150;-110.320;2023-05-01T07:33:56;26.15;;;7.75;;
64500;SDS011;50874;24.150;-110.320;2023-05-01T07:36:23;23.92;;;7.25;;
64500;SDS011;50874;24.150;-110.320;2023-05-01T07:38:49;26.80;;;7.68;;
64500;SDS011;50874;24.150;-110.320;2023-05-01T07:41:16;26.30;;;6.43;;
64500;SDS011;50874;24.150;-110.320;2023-05-01T07:43:42;27.98;;;6.93;;
64500;SDS011;50874;24.150;-110.320;2023-05-01T07:46:08;19.05;;;6.35;;
64500;SDS011;50874;24.150;-110.320;2023-05-01T07:48:36;32.30;;;7.70;;
64500;SDS011;50874;24.150;-110.320;2023-05-01T07:51:02;43.30;;;8.25;;
64500;SDS011;50874;24.150;-110.320;2023-05-01T07:53:29;34.33;;;8.25;;
64500;SDS011;50874;24.150;-110.320;2023-05-01T07:56:05;20.95;;;6.22;;
64500;SDS011;50874;24.150;-110.320;2023-05-01T07:58:33;23.60;;;7.00;;
64500;SDS011;50874;24.150;-110.320;2023-05-01T08:01:01;23.02;;;7.22;;
64500;SDS011;50874;24.150;-110.320;2023-05-01T08:03:28;25.42;;;7.20;;
64500;SDS011;50874;24.150;-110.320;2023-05-01T08:05:55;23.60;;;7.07;;
64500;SDS011;50874;24.150;-110.320;2023-05-01T08:08:22;24.23;;;6.97;;
64500;SDS011;50874;24.150;-110.320;2023-05-01T08:10:49;21.00;;;6.93;;
64500;SDS011;50874;24.150;-110.320;2023-05-01T08:13:16;23.90;;;7.75;;
64500;SDS011;50874;24.150;-110.320;2023-05-01T08:15:46;25.92;;;7.30;;
64500;SDS011;50874;24.150;-110.320;2023-05-01T08:18:13;27.27;;;8.43;;
64500;SDS011;50874;24.150;-110.320;2023-05-01T08:20:46;23.48;;;7.68;;
64500;SDS011;50874;24.150;-110.320;2023-05-01T08:23:13;46.58;;;8.80;;
64500;SDS011;50874;24.150;-110.320;2023-05-01T08:25:40;26.52;;;8.45;;
64500;SDS011;50874;24.150;-110.320;2023-05-01T08:28:06;30.35;;;8.45;;
64500;SDS011;50874;24.150;-110.320;2023-05-01T08:30:33;34.35;;;7.07;;
64500;SDS011;50874;24.150;-110.320;2023-05-01T08:33:00;29.27;;;8.05;;
64500;SDS011;50874;24.150;-110.320;2023-05-01T08:35:27;31.17;;;8.15;;
64500;SDS011;50874;24.150;-110.320;2023-05-01T08:37:54;31.88;;;8.48;;
64500;SDS011;50874;24.150;-110.320;2023-05-01T08:40:20;45.92;;;8.02;;
64500;SDS011;50874;24.150;-110.320;2023-05-01T08:42:48;29.45;;;7.82;;
64500;SDS011;50874;24.150;-110.320;2023-05-01T08:45:16;26.35;;;7.45;;
64500;SDS011;50874;24.150;-110.320;2023-05-01T08:47:46;29.10;;;7.25;;
64500;SDS011;50874;24.150;-110.320;2023-05-01T08:50:13;24.88;;;6.20;;
64500;SDS011;50874;24.150;-110.320;2023-05-01T08:52:42;25.67;;;7.07;;
64500;SDS011;50874;24.150;-110.320;2023-05-01T08:55:10;23.08;;;7.45;;
64500;SDS011;50874;24.150;-110.320;2023-05-01T08:57:38;31.58;;;7.22;;
64500;SDS011;50874;24.150;-110.320;2023-05-01T09:00:18;23.67;;;8.30;;
64500;SDS011;50874;24.150;-110.320;2023-05-01T09:02:46;20.25;;;6.63;;
64500;SDS011;50874;24.150;-110.320;2023-05-01T09:05:14;28.33;;;6.68;;
64500;SDS011;50874;24.150;-110.320;2023-05-01T09:07:42;22.85;;;5.75;;
64500;SDS011;50874;24.150;-110.320;2023-05-01T09:10:13;26.48;;;7.28;;
64500;SDS011;50874;24.150;-110.320;2023-05-01T09:12:42;23.38;;;6.95;;
64500;SDS011;50874;24.150;-110.320;2023-05-01T09:15:11;25.10;;;6.50;;
64500;SDS011;50874;24.150;-110.320;2023-05-01T09:17:38;22.25;;;7.53;;
64500;SDS011;50874;24.150;-110.320;2023-05-01T09:20:07;21.73;;;7.20;;
64500;SDS011;50874;24.150;-110.320;2023-05-01T09:22:34;22.50;;;6.55;;
64500;SDS011;50874;24.150;-110.320;2023-05-01T09:25:00;25.08;;;7.03;;
64500;SDS011;50874;24.150;-110.320;2023-05-01T09:27:29;32.00;;;7.78;;
64500;SDS011;50874;24.150;-110.320;2023-05-01T09:30:00;23.15;;;6.43;;
64500;SDS011;50874;24.150;-110.320;2023-05-01T09:32:26;31.75;;;7.13;;
64500;SDS011;50874;24.150;-110.320;2023-05-01T09:34:53;22.52;;;6.85;;
64500;SDS011;50874;24.150;-110.320;2023-05-01T09:37:42;28.65;;;7.32;;
64500;SDS011;50874;24.150;-110.320;2023-05-01T09:40:14;30.58;;;6.95;;
64500;SDS011;50874;24.150;-110.320;2023-05-01T09:42:50;28.42;;;6.47;;
64500;SDS011;50874;24.150;-110.320;2023-05-01T09:45:19;22.67;;;7.03;;
64500;SDS011;50874;24.150;-110.320;2023-05-01T09:47:46;21.92;;;7.03;;
64500;SDS011;50874;24.150;-110.320;2023-05-01T09:50:31;20.15;;;7.18;;
64500;SDS011;50874;24.150;-110.320;2023-05-01T09:53:02;24.58;;;8.02;;
64500;SDS011;50874;24.150;-110.320;2023-05-01T09:55:31;20.92;;;6.85;;
64500;SDS011;50874;24.150;-110.320;2023-05-01T09:57:58;25.70;;;7.35;;
64500;SDS011;50874;24.150;-110.320;2023-05-01T10:00:24;21.90;;;7.32;;
64500;SDS011;50874;24.150;-110.320;2023-05-01T10:02:51;21.77;;;7.43;;
64500;SDS011;50874;24.150;-110.320;2023-05-01T10:05:18;26.42;;;6.97;;
64500;SDS011;50874;24.150;-110.320;2023-05-01T10:07:58;27.80;;;7.40;;
64500;SDS011;50874;24.150;-110.320;2023-05-01T10:10:26;18.52;;;7.13;;
64500;SDS011;50874;24.150;-110.320;2023-05-01T10:12:53;28.50;;;7.80;;
64500;SDS011;50874;24.150;-110.320;2023-05-01T10:15:19;22.05;;;6.85;;
64500;SDS011;50874;24.150;-110.320;2023-05-01T10:17:48;24.35;;;7.88;;
64500;SDS011;50874;24.150;-110.320;2023-05-01T10:20:18;22.35;;;7.70;;
64500;SDS011;50874;24.150;-110.320;2023-05-01T10:22:45;27.10;;;8.05;;
64500;SDS011;50874;24.150;-110.320;2023-05-01T10:25:12;34.95;;;7.63;;
64500;SDS011;50874;24.150;-110.320;2023-05-01T10:27:40;22.98;;;8.13;;
64500;SDS011;50874;24.150;-110.320;2023-05-01T10:30:07;20.92;;;7.85;;
64500;SDS011;50874;24.150;-110.320;2023-05-01T10:32:35;23.33;;;7.18;;
64500;SDS011;50874;24.150;-110.320;2023-05-01T10:35:13;31.00;;;9.43;;
64500;SDS011;50874;24.150;-110.320;2023-05-01T10:43:20;19.70;;;7.35;;
64500;SDS011;50874;24.150;-110.320;2023-05-01T10:45:53;24.25;;;7.45;;
64500;SDS011;50874;24.150;-110.320;2023-05-01T10:51:08;27.25;;;8.27;;
64500;SDS011;50874;24.150;-110.320;2023-05-01T10:53:37;29.13;;;7.95;;
64500;SDS011;50874;24.150;-110.320;2023-05-01T10:56:05;29.60;;;7.88;;
64500;SDS011;50874;24.150;-110.320;2023-05-01T10:58:54;25.42;;;7.38;;
64500;SDS011;50874;24.150;-110.320;2023-05-01T11:01:30;33.70;;;7.72;;
64500;SDS011;50874;24.150;-110.320;2023-05-01T11:03:57;31.52;;;7.75;;
64500;SDS011;50874;24.150;-110.320;2023-05-01T11:06:25;24.67;;;7.13;;
64500;SDS011;50874;24.150;-110.320;2023-05-01T11:08:51;21.13;;;7.50;;
64500;SDS011;50874;24.150;-110.320;2023-05-01T11:14:00;23.98;;;7.75;;
64500;SDS011;50874;24.150;-110.320;2023-05-01T11:21:48;19.70;;;7.35;;
64500;SDS011;50874;24.150;-110.320;2023-05-01T11:24:15;25.95;;;8.10;;
64500;SDS011;50874;24.150;-110.320;2023-05-01T11:26:43;23.92;;;7.97;;
64500;SDS011;50874;24.150;-110.320;2023-05-01T11:29:10;25.05;;;7.13;;
64500;SDS011;50874;24.150;-110.320;2023-05-01T11:31:37;24.55;;;7.43;;
64500;SDS011;50874;24.150;-110.320;2023-05-01T11:34:04;26.17;;;8.57;;
64500;SDS011;50874;24.150;-110.320;2023-05-01T11:36:49;22.92;;;7.43;;
64500;SDS011;50874;24.150;-110.320;2023-05-01T11:39:16;23.73;;;7.40;;
64500;SDS011;50874;24.150;-110.320;2023-05-01T11:41:44;23.40;;;7.03;;
64500;SDS011;50874;24.150;-110.320;2023-05-01T11:44:11;19.73;;;7.45;;
64500;SDS011;50874;24.150;-110.320;2023-05-01T11:46:43;28.95;;;7.28;;
64500;SDS011;50874;24.150;-110.320;2023-05-01T11:49:10;35.97;;;7.90;;
64500;SDS011;50874;24.150;-110.320;2023-05-01T11:51:36;24.17;;;7.72;;
64500;SDS011;50874;24.150;-110.320;2023-05-01T11:54:04;28.48;;;7.70;;
64500;SDS011;50874;24.150;-110.320;2023-05-01T11:56:31;17.15;;;6.65;;
64500;SDS011;50874;24.150;-110.320;2023-05-01T11:59:08;26.80;;;7.50;;
64500;SDS011;50874;24.150;-110.320;2023-05-01T12:01:39;19.77;;;7.45;;
64500;SDS011;50874;24.150;-110.320;2023-05-01T12:04:09;30.10;;;8.07;;
64500;SDS011;50874;24.150;-110.320;2023-05-01T12:06:37;22.97;;;7.87;;
64500;SDS011;50874;24.150;-110.320;2023-05-01T12:09:17;27.50;;;8.43;;
64500;SDS011;50874;24.150;-110.320;2023-05-01T12:11:46;39.30;;;9.00;;
64500;SDS011;50874;24.150;-110.320;2023-05-01T12:14:14;20.65;;;7.82;;
64500;SDS011;50874;24.150;-110.320;2023-05-01T12:16:41;25.98;;;9.00;;
64500;SDS011;50874;24.150;-110.320;2023-05-01T12:19:08;38.78;;;9.70;;
64500;SDS011;50874;24.150;-110.320;2023-05-01T12:21:37;33.47;;;10.18;;
64500;SDS011;50874;24.150;-110.320;2023-05-01T12:24:07;29.15;;;8.88;;
64500;SDS011;50874;24.150;-110.320;2023-05-01T12:26:34;29.50;;;8.38;;
64500;SDS011;50874;24.150;-110.320;2023-05-01T12:29:02;19.85;;;7.63;;
64500;SDS011;50874;24.150;-110.320;2023-05-01T12:31:29;25.58;;;8.52;;
64500;SDS011;50874;24.150;-110.320;2023-05-01T12:33:57;24.05;;;8.00;;
64500;SDS011;50874;24.150;-110.320;2023-05-01T12:36:27;29.83;;;9.23;;
64500;SDS011;50874;24.150;-110.320;2023-05-01T12:39:01;33.25;;;8.65;;
64500;SDS011;50874;24.150;-110.320;2023-05-01T12:41:35;20.92;;;8.00;;
64500;SDS011;50874;24.150;-110.320;2023-05-01T12:44:18;19.80;;;8.27;;
64500;SDS011;50874;24.150;-110.320;2023-05-01T12:47:03;28.42;;;8.50;;
64500;SDS011;50874;24.150;-110.320;2023-05-01T12:49:31;29.15;;;8.82;;
64500;SDS011;50874;24.150;-110.320;2023-05-01T12:52:01;25.05;;;7.88;;
64500;SDS011;50874;24.150;-110.320;2023-05-01T12:54:33;24.00;;;8.68;;
64500;SDS011;50874;24.150;-110.320;2023-05-01T12:57:13;35.95;;;10.18;;
64500;SDS011;50874;24.150;-110.320;2023-05-01T12:59:41;27.98;;;7.47;;
64500;SDS011;50874;24.150;-110.320;2023-05-01T13:02:13;30.17;;;9.73;;
64500;SDS011;50874;24.150;-110.320;2023-05-01T13:04:40;27.95;;;8.98;;
64500;SDS011;50874;24.150;-110.320;2023-05-01T13:07:11;31.75;;;8.70;;
64500;SDS011;50874;24.150;-110.320;2023-05-01T13:09:51;31.80;;;8.27;;
64500;SDS011;50874;24.150;-110.320;2023-05-01T13:12:19;26.65;;;8.07;;
64500;SDS011;50874;24.150;-110.320;2023-05-01T13:14:46;29.52;;;9.05;;
64500;SDS011;50874;24.150;-110.320;2023-05-01T13:17:20;21.90;;;7.80;;
64500;SDS011;50874;24.150;-110.320;2023-05-01T13:20:00;27.55;;;7.47;;
64500;SDS011;50874;24.150;-110.320;2023-05-01T13:24:54;32.53;;;7.70;;
64500;SDS011;50874;24.150;-110.320;2023-05-01T13:27:22;40.22;;;8.27;;
64500;SDS011;50874;24.150;-110.320;2023-05-01T13:29:55;33.30;;;7.38;;
64500;SDS011;50874;24.150;-110.320;2023-05-01T13:32:23;18.65;;;6.57;;
64500;SDS011;50874;24.150;-110.320;2023-05-01T13:34:50;25.65;;;7.07;;
64500;SDS011;50874;24.150;-110.320;2023-05-01T13:37:20;23.92;;;6.03;;
64500;SDS011;50874;24.150;-110.320;2023-05-01T13:39:47;19.02;;;5.55;;
64500;SDS011;50874;24.150;-110.320;2023-05-01T13:42:21;19.52;;;6.15;;
64500;SDS011;50874;24.150;-110.320;2023-05-01T13:44:52;17.73;;;5.95;;
64500;SDS011;50874;24.150;-110.320;2023-05-01T13:47:21;20.63;;;5.50;;
64500;SDS011;50874;24.150;-110.320;2023-05-01T13:49:52;24.38;;;5.97;;
64500;SDS011;50874;24.150;-110.320;2023-05-01T13:52:19;23.48;;;7.20;;
64500;SDS011;50874;24.150;-110.320;2023-05-01T13:54:46;19.25;;;5.68;;
64500;SDS011;50874;24.150;-110.320;2023-05-01T13:57:13;20.33;;;4.93;;
64500;SDS011;50874;24.150;-110.320;2023-05-01T13:59:42;28.13;;;5.95;;
64500;SDS011;50874;24.150;-110.320;2023-05-01T14:02:19;20.42;;;5.60;;
64500;SDS011;50874;24.150;-110.320;2023-05-01T14:04:49;14.60;;;4.82;;
64500;SDS011;50874;24.150;-110.320;2023-05-01T14:07:17;22.33;;;7.53;;
64500;SDS011;50874;24.150;-110.320;2023-05-01T14:09:51;20.52;;;6.97;;
64500;SDS011;50874;24.150;-110.320;2023-05-01T14:12:21;18.23;;;5.43;;
64500;SDS011;50874;24.150;-110.320;2023-05-01T14:14:52;24.50;;;5.47;;
64500;SDS011;50874;24.150;-110.320;2023-05-01T14:17:18;19.30;;;5.03;;
64500;SDS011;50874;24.150;-110.320;2023-05-01T14:19:59;21.23;;;5.68;;
64500;SDS011;50874;24.150;-110.320;2023-05-01T14:22:42;16.60;;;4.72;;
64500;SDS011;50874;24.150;-110.320;2023-05-01T14:27:53;16.80;;;4.75;;
64500;SDS011;50874;24.150;-110.320;2023-05-01T14:30:24;15.48;;;5.25;;
64500;SDS011;50874;24.150;-110.320;2023-05-01T14:33:00;17.88;;;4.43;;
64500;SDS011;50874;24.150;-110.320;2023-05-01T14:35:28;15.10;;;4.03;;
64500;SDS011;50874;24.150;-110.320;2023-05-01T14:37:56;17.08;;;5.05;;
64500;SDS011;50874;24.150;-110.320;2023-05-01T14:40:29;13.57;;;4.63;;
64500;SDS011;50874;24.150;-110.320;2023-05-01T14:42:56;19.10;;;4.82;;